sensor_id;sensor_type;location;lat;lon;timestamp;temperature;humidity
77582;DHT22;66726;52.388;9.986;2024-02-23T00:02:08;9.50;99.90
77582;DHT22;66726;52.388;9.986;2024-02-23T00:04:36;9.50;99.90
77582;DHT22;66726;52.388;9.986;2024-02-23T00:07:04;9.40;99.90
77582;DHT22;66726;52.388;9.986;2024-02-23T00:09:32;9.40;99.90
77582;DHT22;66726;52.388;9.986;2024-02-23T00:12:01;9.30;99.90
77582;DHT22;66726;52.388;9.986;2024-02-23T00:14:29;9.30;99.90
77582;DHT22;66726;52.388;9.986;2024-02-23T00:16:59;9.30;99.90
77582;DHT22;66726;52.388;9.986;2024-02-23T00:19:30;9.30;99.90
77582;DHT22;66726;52.388;9.986;2024-02-23T00:21:58;9.30;99.90
77582;DHT22;66726;52.388;9.986;2024-02-23T00:24:27;9.20;99.90
77582;DHT22;66726;52.388;9.986;2024-02-23T00:26:56;9.20;99.90
77582;DHT22;66726;52.388;9.986;2024-02-23T00:29:24;9.30;99.90
77582;DHT22;66726;52.388;9.986;2024-02-23T00:31:52;9.20;99.90
77582;DHT22;66726;52.388;9.986;2024-02-23T00:34:20;9.30;99.90
77582;DHT22;66726;52.388;9.986;2024-02-23T00:36:50;9.30;99.90
77582;DHT22;66726;52.388;9.986;2024-02-23T00:39:18;9.20;99.90
77582;DHT22;66726;52.388;9.986;2024-02-23T00:41:46;9.20;99.90
77582;DHT22;66726;52.388;9.986;2024-02-23T00:44:14;9.10;99.90
77582;DHT22;66726;52.388;9.986;2024-02-23T00:46:43;9.10;99.90
77582;DHT22;66726;52.388;9.986;2024-02-23T00:49:11;9.20;99.90
77582;DHT22;66726;52.388;9.986;2024-02-23T00:51:39;9.10;99.90
77582;DHT22;66726;52.388;9.986;2024-02-23T00:54:09;9.20;99.90
77582;DHT22;66726;52.388;9.986;2024-02-23T00:56:37;9.10;99.90
77582;DHT22;66726;52.388;9.986;2024-02-23T00:59:17;9.10;99.90
77582;DHT22;66726;52.388;9.986;2024-02-23T01:01:45;9.20;99.90
77582;DHT22;66726;52.388;9.986;2024-02-23T01:04:13;9.20;99.90
77582;DHT22;66726;52.388;9.986;2024-02-23T01:06:42;9.10;99.90
77582;DHT22;66726;52.388;9.986;2024-02-23T01:09:11;9.10;99.90
77582;DHT22;66726;52.388;9.986;2024-02-23T01:11:39;9.10;99.90
77582;DHT22;66726;52.388;9.986;2024-02-23T01:14:08;9.10;99.90
77582;DHT22;66726;52.388;9.986;2024-02-23T01:16:36;9.10;99.90
77582;DHT22;66726;52.388;9.986;2024-02-23T01:19:04;9.10;99.90
77582;DHT22;66726;52.388;9.986;2024-02-23T01:21:32;9.00;99.90
77582;DHT22;66726;52.388;9.986;2024-02-23T01:24:01;9.10;99.90
77582;DHT22;66726;52.388;9.986;2024-02-23T01:26:30;9.10;99.90
77582;DHT22;66726;52.388;9.986;2024-02-23T01:28:58;9.00;99.90
77582;DHT22;66726;52.388;9.986;2024-02-23T01:31:26;8.90;99.90
77582;DHT22;66726;52.388;9.986;2024-02-23T01:33:55;8.90;99.90
77582;DHT22;66726;52.388;9.986;2024-02-23T01:36:23;8.90;99.90
77582;DHT22;66726;52.388;9.986;2024-02-23T01:38:54;8.80;99.90
77582;DHT22;66726;52.388;9.986;2024-02-23T01:41:22;8.70;99.90
77582;DHT22;66726;52.388;9.986;2024-02-23T01:43:52;8.70;99.90
77582;DHT22;66726;52.388;9.986;2024-02-23T01:46:20;8.60;99.90
77582;DHT22;66726;52.388;9.986;2024-02-23T01:48:49;8.60;99.90
77582;DHT22;66726;52.388;9.986;2024-02-23T01:51:18;8.50;99.90
77582;DHT22;66726;52.388;9.986;2024-02-23T01:53:50;8.50;99.90
77582;DHT22;66726;52.388;9.986;2024-02-23T01:56:19;8.30;99.90
77582;DHT22;66726;52.388;9.986;2024-02-23T01:58:49;8.20;99.90
77582;DHT22;66726;52.388;9.986;2024-02-23T02:01:18;8.20;99.90
77582;DHT22;66726;52.388;9.986;2024-02-23T02:03:47;8.00;99.90
77582;DHT22;66726;52.388;9.986;2024-02-23T02:06:15;8.00;99.90
77582;DHT22;66726;52.388;9.986;2024-02-23T02:08:43;7.90;99.90
77582;DHT22;66726;52.388;9.986;2024-02-23T02:11:12;7.90;99.90
77582;DHT22;66726;52.388;9.986;2024-02-23T02:13:40;7.80;99.90
77582;DHT22;66726;52.388;9.986;2024-02-23T02:16:08;7.60;99.90
77582;DHT22;66726;52.388;9.986;2024-02-23T02:18:39;7.60;99.90
77582;DHT22;66726;52.388;9.986;2024-02-23T02:21:07;7.60;99.90
77582;DHT22;66726;52.388;9.986;2024-02-23T02:23:35;7.60;99.90
77582;DHT22;66726;52.388;9.986;2024-02-23T02:26:04;7.50;99.90
77582;DHT22;66726;52.388;9.986;2024-02-23T02:28:32;7.30;99.90
77582;DHT22;66726;52.388;9.986;2024-02-23T02:31:01;7.20;99.90
77582;DHT22;66726;52.388;9.986;2024-02-23T02:33:29;7.10;99.90
77582;DHT22;66726;52.388;9.986;2024-02-23T02:35:59;7.10;99.90
77582;DHT22;66726;52.388;9.986;2024-02-23T02:38:27;7.00;99.90
77582;DHT22;66726;52.388;9.986;2024-02-23T02:40:55;7.00;99.90
77582;DHT22;66726;52.388;9.986;2024-02-23T02:43:24;7.00;99.90
77582;DHT22;66726;52.388;9.986;2024-02-23T02:45:52;7.00;99.90
77582;DHT22;66726;52.388;9.986;2024-02-23T02:48:20;6.90;99.90
77582;DHT22;66726;52.388;9.986;2024-02-23T02:50:48;7.00;99.90
77582;DHT22;66726;52.388;9.986;2024-02-23T02:53:21;6.90;99.90
77582;DHT22;66726;52.388;9.986;2024-02-23T02:55:49;6.90;99.90
77582;DHT22;66726;52.388;9.986;2024-02-23T02:58:17;6.90;99.90
77582;DHT22;66726;52.388;9.986;2024-02-23T03:00:45;7.00;99.90
77582;DHT22;66726;52.388;9.986;2024-02-23T03:03:14;6.90;99.90
77582;DHT22;66726;52.388;9.986;2024-02-23T03:05:42;6.80;99.90
77582;DHT22;66726;52.388;9.986;2024-02-23T03:08:10;6.80;99.90
77582;DHT22;66726;52.388;9.986;2024-02-23T03:10:40;6.70;99.90
77582;DHT22;66726;52.388;9.986;2024-02-23T03:13:08;6.70;99.90
77582;DHT22;66726;52.388;9.986;2024-02-23T03:15:36;6.70;99.90
77582;DHT22;66726;52.388;9.986;2024-02-23T03:18:05;6.70;99.90
77582;DHT22;66726;52.388;9.986;2024-02-23T03:20:36;6.70;99.90
77582;DHT22;66726;52.388;9.986;2024-02-23T03:23:04;6.60;99.90
77582;DHT22;66726;52.388;9.986;2024-02-23T03:25:32;6.60;99.90
77582;DHT22;66726;52.388;9.986;2024-02-23T03:28:02;6.70;99.90
77582;DHT22;66726;52.388;9.986;2024-02-23T03:30:30;6.60;99.90
77582;DHT22;66726;52.388;9.986;2024-02-23T03:33:02;6.60;99.90
77582;DHT22;66726;52.388;9.986;2024-02-23T03:35:31;6.60;99.90
77582;DHT22;66726;52.388;9.986;2024-02-23T03:37:59;6.60;99.90
77582;DHT22;66726;52.388;9.986;2024-02-23T03:40:26;6.60;99.90
77582;DHT22;66726;52.388;9.986;2024-02-23T03:42:54;6.50;99.90
77582;DHT22;66726;52.388;9.986;2024-02-23T03:45:24;6.50;99.90
77582;DHT22;66726;52.388;9.986;2024-02-23T03:47:52;6.50;99.90
77582;DHT22;66726;52.388;9.986;2024-02-23T03:50:20;6.60;99.90
77582;DHT22;66726;52.388;9.986;2024-02-23T03:52:48;6.60;99.90
77582;DHT22;66726;52.388;9.986;2024-02-23T03:55:17;6.60;99.90
77582;DHT22;66726;52.388;9.986;2024-02-23T03:57:45;6.50;99.90
77582;DHT22;66726;52.388;9.986;2024-02-23T04:00:14;6.40;99.90
77582;DHT22;66726;52.388;9.986;2024-02-23T04:02:44;6.50;99.90
77582;DHT22;66726;52.388;9.986;2024-02-23T04:05:12;6.50;99.90
77582;DHT22;66726;52.388;9.986;2024-02-23T04:07:41;6.50;99.90
77582;DHT22;66726;52.388;9.986;2024-02-23T04:10:09;6.40;99.90
77582;DHT22;66726;52.388;9.986;2024-02-23T04:12:42;6.40;99.90
77582;DHT22;66726;52.388;9.986;2024-02-23T04:15:11;6.50;99.90
77582;DHT22;66726;52.388;9.986;2024-02-23T04:17:40;6.50;99.90
77582;DHT22;66726;52.388;9.986;2024-02-23T04:20:10;6.40;99.90
77582;DHT22;66726;52.388;9.986;2024-02-23T04:22:38;6.50;99.90
77582;DHT22;66726;52.388;9.986;2024-02-23T04:25:07;6.40;99.90
77582;DHT22;66726;52.388;9.986;2024-02-23T04:27:35;6.40;99.90
77582;DHT22;66726;52.388;9.986;2024-02-23T04:30:04;6.40;99.90
77582;DHT22;66726;52.388;9.986;2024-02-23T04:32:33;6.40;99.90
77582;DHT22;66726;52.388;9.986;2024-02-23T04:35:02;6.40;99.90
77582;DHT22;66726;52.388;9.986;2024-02-23T04:37:32;6.40;99.90
77582;DHT22;66726;52.388;9.986;2024-02-23T04:40:03;6.40;99.90
77582;DHT22;66726;52.388;9.986;2024-02-23T04:42:33;6.40;99.90
77582;DHT22;66726;52.388;9.986;2024-02-23T04:45:01;6.40;99.90
77582;DHT22;66726;52.388;9.986;2024-02-23T04:47:29;6.40;99.90
77582;DHT22;66726;52.388;9.986;2024-02-23T04:49:57;6.40;99.90
77582;DHT22;66726;52.388;9.986;2024-02-23T04:52:26;6.40;99.90
77582;DHT22;66726;52.388;9.986;2024-02-23T04:54:55;6.40;99.90
77582;DHT22;66726;52.388;9.986;2024-02-23T04:57:24;6.40;99.90
77582;DHT22;66726;52.388;9.986;2024-02-23T04:59:52;6.40;99.90
77582;DHT22;66726;52.388;9.986;2024-02-23T05:02:20;6.40;99.90
77582;DHT22;66726;52.388;9.986;2024-02-23T05:04:48;6.40;99.90
77582;DHT22;66726;52.388;9.986;2024-02-23T05:07:16;6.40;99.90
77582;DHT22;66726;52.388;9.986;2024-02-23T05:09:44;6.40;99.90
77582;DHT22;66726;52.388;9.986;2024-02-23T05:12:14;6.30;99.90
77582;DHT22;66726;52.388;9.986;2024-02-23T05:14:42;6.40;99.90
77582;DHT22;66726;52.388;9.986;2024-02-23T05:17:11;6.30;99.90
77582;DHT22;66726;52.388;9.986;2024-02-23T05:19:39;6.30;99.90
77582;DHT22;66726;52.388;9.986;2024-02-23T05:22:07;6.30;99.90
77582;DHT22;66726;52.388;9.986;2024-02-23T05:24:35;6.30;99.90
77582;DHT22;66726;52.388;9.986;2024-02-23T05:27:04;6.30;99.90
77582;DHT22;66726;52.388;9.986;2024-02-23T05:29:33;6.30;99.90
77582;DHT22;66726;52.388;9.986;2024-02-23T05:32:01;6.30;99.90
77582;DHT22;66726;52.388;9.986;2024-02-23T05:34:30;6.40;99.90
77582;DHT22;66726;52.388;9.986;2024-02-23T05:36:58;6.40;99.90
77582;DHT22;66726;52.388;9.986;2024-02-23T05:39:26;6.30;99.90
77582;DHT22;66726;52.388;9.986;2024-02-23T05:41:54;6.30;99.90
77582;DHT22;66726;52.388;9.986;2024-02-23T05:44:24;6.30;99.90
77582;DHT22;66726;52.388;9.986;2024-02-23T05:46:53;6.30;99.90
77582;DHT22;66726;52.388;9.986;2024-02-23T05:49:21;6.30;99.90
77582;DHT22;66726;52.388;9.986;2024-02-23T05:51:50;6.20;99.90
77582;DHT22;66726;52.388;9.986;2024-02-23T05:54:18;6.20;99.90
77582;DHT22;66726;52.388;9.986;2024-02-23T05:56:46;6.30;99.90
77582;DHT22;66726;52.388;9.986;2024-02-23T05:59:15;6.20;99.90
77582;DHT22;66726;52.388;9.986;2024-02-23T06:01:43;6.20;99.90
77582;DHT22;66726;52.388;9.986;2024-02-23T06:04:13;6.20;99.90
77582;DHT22;66726;52.388;9.986;2024-02-23T06:06:41;6.30;99.90
77582;DHT22;66726;52.388;9.986;2024-02-23T06:09:10;6.30;99.90
77582;DHT22;66726;52.388;9.986;2024-02-23T06:11:39;6.20;99.90
77582;DHT22;66726;52.388;9.986;2024-02-23T06:14:08;6.30;99.90
77582;DHT22;66726;52.388;9.986;2024-02-23T06:16:36;6.30;99.90
77582;DHT22;66726;52.388;9.986;2024-02-23T06:19:04;6.30;99.90
77582;DHT22;66726;52.388;9.986;2024-02-23T06:21:34;6.30;99.90
77582;DHT22;66726;52.388;9.986;2024-02-23T06:24:02;6.30;99.90
77582;DHT22;66726;52.388;9.986;2024-02-23T06:26:31;6.30;99.90
77582;DHT22;66726;52.388;9.986;2024-02-23T06:28:59;6.30;99.90
77582;DHT22;66726;52.388;9.986;2024-02-23T06:31:27;6.40;99.90
77582;DHT22;66726;52.388;9.986;2024-02-23T06:33:56;6.30;99.90
77582;DHT22;66726;52.388;9.986;2024-02-23T06:36:24;6.30;99.90
77582;DHT22;66726;52.388;9.986;2024-02-23T06:38:54;6.40;99.90
77582;DHT22;66726;52.388;9.986;2024-02-23T06:41:22;6.30;99.90
77582;DHT22;66726;52.388;9.986;2024-02-23T06:43:51;6.30;99.90
77582;DHT22;66726;52.388;9.986;2024-02-23T06:46:19;6.40;99.90
77582;DHT22;66726;52.388;9.986;2024-02-23T06:48:48;6.40;99.90
77582;DHT22;66726;52.388;9.986;2024-02-23T06:51:16;6.30;99.90
77582;DHT22;66726;52.388;9.986;2024-02-23T06:53:44;6.30;99.90
77582;DHT22;66726;52.388;9.986;2024-02-23T06:56:13;6.30;99.90
77582;DHT22;66726;52.388;9.986;2024-02-23T06:58:42;6.30;99.90
77582;DHT22;66726;52.388;9.986;2024-02-23T07:01:10;6.30;99.90
77582;DHT22;66726;52.388;9.986;2024-02-23T07:03:39;6.40;99.90
77582;DHT22;66726;52.388;9.986;2024-02-23T07:06:10;6.40;99.90
77582;DHT22;66726;52.388;9.986;2024-02-23T07:08:38;6.40;99.90
77582;DHT22;66726;52.388;9.986;2024-02-23T07:11:06;6.40;99.90
77582;DHT22;66726;52.388;9.986;2024-02-23T07:13:36;6.40;99.90
77582;DHT22;66726;52.388;9.986;2024-02-23T07:16:05;6.40;99.90
77582;DHT22;66726;52.388;9.986;2024-02-23T07:18:34;6.40;99.90
77582;DHT22;66726;52.388;9.986;2024-02-23T07:21:02;6.40;99.90
77582;DHT22;66726;52.388;9.986;2024-02-23T07:23:30;6.40;99.90
77582;DHT22;66726;52.388;9.986;2024-02-23T07:25:58;6.40;99.90
77582;DHT22;66726;52.388;9.986;2024-02-23T07:28:27;6.50;99.90
77582;DHT22;66726;52.388;9.986;2024-02-23T07:30:56;6.50;99.90
77582;DHT22;66726;52.388;9.986;2024-02-23T07:33:24;6.50;99.90
77582;DHT22;66726;52.388;9.986;2024-02-23T07:35:53;6.50;99.90
77582;DHT22;66726;52.388;9.986;2024-02-23T07:38:21;6.50;99.90
77582;DHT22;66726;52.388;9.986;2024-02-23T07:40:49;6.50;99.90
77582;DHT22;66726;52.388;9.986;2024-02-23T07:43:17;6.50;99.90
77582;DHT22;66726;52.388;9.986;2024-02-23T07:45:45;6.50;99.90
77582;DHT22;66726;52.388;9.986;2024-02-23T07:48:15;6.50;99.90
77582;DHT22;66726;52.388;9.986;2024-02-23T07:50:43;6.60;99.90
77582;DHT22;66726;52.388;9.986;2024-02-23T07:53:11;6.60;99.90
77582;DHT22;66726;52.388;9.986;2024-02-23T07:55:39;6.60;99.90
77582;DHT22;66726;52.388;9.986;2024-02-23T07:58:08;6.60;99.90
77582;DHT22;66726;52.388;9.986;2024-02-23T08:00:36;6.60;99.90
77582;DHT22;66726;52.388;9.986;2024-02-23T08:03:05;6.60;99.90
77582;DHT22;66726;52.388;9.986;2024-02-23T08:05:36;6.60;99.90
77582;DHT22;66726;52.388;9.986;2024-02-23T08:08:05;6.60;99.90
77582;DHT22;66726;52.388;9.986;2024-02-23T08:10:34;6.60;99.90
77582;DHT22;66726;52.388;9.986;2024-02-23T08:13:02;6.60;99.90
77582;DHT22;66726;52.388;9.986;2024-02-23T08:15:30;6.60;99.90
77582;DHT22;66726;52.388;9.986;2024-02-23T08:17:58;6.60;99.90
77582;DHT22;66726;52.388;9.986;2024-02-23T08:20:27;6.60;99.90
77582;DHT22;66726;52.388;9.986;2024-02-23T08:22:57;6.70;99.90
77582;DHT22;66726;52.388;9.986;2024-02-23T08:25:25;6.70;99.90
77582;DHT22;66726;52.388;9.986;2024-02-23T08:27:55;6.80;99.90
77582;DHT22;66726;52.388;9.986;2024-02-23T08:30:23;6.80;99.90
77582;DHT22;66726;52.388;9.986;2024-02-23T08:32:52;6.90;99.90
77582;DHT22;66726;52.388;9.986;2024-02-23T08:35:20;7.00;99.90
77582;DHT22;66726;52.388;9.986;2024-02-23T08:37:48;7.00;99.90
77582;DHT22;66726;52.388;9.986;2024-02-23T08:40:18;7.00;99.90
77582;DHT22;66726;52.388;9.986;2024-02-23T08:42:46;7.00;99.90
77582;DHT22;66726;52.388;9.986;2024-02-23T08:45:16;7.00;99.90
77582;DHT22;66726;52.388;9.986;2024-02-23T08:47:44;7.00;99.90
77582;DHT22;66726;52.388;9.986;2024-02-23T08:50:13;7.00;99.90
77582;DHT22;66726;52.388;9.986;2024-02-23T08:52:42;7.00;99.90
77582;DHT22;66726;52.388;9.986;2024-02-23T08:55:10;7.00;99.90
77582;DHT22;66726;52.388;9.986;2024-02-23T08:57:40;7.10;99.90
77582;DHT22;66726;52.388;9.986;2024-02-23T09:00:10;7.00;99.90
77582;DHT22;66726;52.388;9.986;2024-02-23T09:02:42;7.10;99.90
77582;DHT22;66726;52.388;9.986;2024-02-23T09:05:11;7.10;99.90
77582;DHT22;66726;52.388;9.986;2024-02-23T09:07:39;7.20;99.90
77582;DHT22;66726;52.388;9.986;2024-02-23T09:10:08;7.30;99.90
77582;DHT22;66726;52.388;9.986;2024-02-23T09:12:39;7.40;99.90
77582;DHT22;66726;52.388;9.986;2024-02-23T09:15:08;7.40;99.90
77582;DHT22;66726;52.388;9.986;2024-02-23T09:17:36;7.40;99.90
77582;DHT22;66726;52.388;9.986;2024-02-23T09:20:05;7.40;99.90
77582;DHT22;66726;52.388;9.986;2024-02-23T09:22:34;7.40;99.90
77582;DHT22;66726;52.388;9.986;2024-02-23T09:25:04;7.50;99.90
77582;DHT22;66726;52.388;9.986;2024-02-23T09:27:33;7.60;99.90
77582;DHT22;66726;52.388;9.986;2024-02-23T09:30:05;7.60;99.90
77582;DHT22;66726;52.388;9.986;2024-02-23T09:32:34;7.70;99.90
77582;DHT22;66726;52.388;9.986;2024-02-23T09:35:03;7.80;99.90
77582;DHT22;66726;52.388;9.986;2024-02-23T09:37:33;7.90;99.90
77582;DHT22;66726;52.388;9.986;2024-02-23T09:40:01;7.90;99.90
77582;DHT22;66726;52.388;9.986;2024-02-23T09:42:29;7.90;99.90
77582;DHT22;66726;52.388;9.986;2024-02-23T09:45:00;7.90;99.90
77582;DHT22;66726;52.388;9.986;2024-02-23T09:47:29;7.90;99.90
77582;DHT22;66726;52.388;9.986;2024-02-23T09:50:01;7.90;99.90
77582;DHT22;66726;52.388;9.986;2024-02-23T09:52:32;8.00;99.90
77582;DHT22;66726;52.388;9.986;2024-02-23T09:55:00;7.90;99.90
77582;DHT22;66726;52.388;9.986;2024-02-23T09:57:30;7.90;99.90
77582;DHT22;66726;52.388;9.986;2024-02-23T09:59:58;7.90;99.90
77582;DHT22;66726;52.388;9.986;2024-02-23T10:02:26;7.90;99.90
77582;DHT22;66726;52.388;9.986;2024-02-23T10:04:59;7.90;99.90
77582;DHT22;66726;52.388;9.986;2024-02-23T10:07:29;7.90;99.90
77582;DHT22;66726;52.388;9.986;2024-02-23T10:09:58;7.90;99.90
77582;DHT22;66726;52.388;9.986;2024-02-23T10:12:28;8.00;99.90
77582;DHT22;66726;52.388;9.986;2024-02-23T10:14:56;8.00;99.90
77582;DHT22;66726;52.388;9.986;2024-02-23T10:17:23;7.90;99.90
77582;DHT22;66726;52.388;9.986;2024-02-23T10:19:53;8.00;99.90
77582;DHT22;66726;52.388;9.986;2024-02-23T10:22:22;8.00;99.90
77582;DHT22;66726;52.388;9.986;2024-02-23T10:24:51;8.00;99.90
77582;DHT22;66726;52.388;9.986;2024-02-23T10:27:21;8.00;99.90
77582;DHT22;66726;52.388;9.986;2024-02-23T10:29:50;8.10;99.90
77582;DHT22;66726;52.388;9.986;2024-02-23T10:32:19;8.20;99.90
77582;DHT22;66726;52.388;9.986;2024-02-23T10:34:48;8.10;99.90
77582;DHT22;66726;52.388;9.986;2024-02-23T10:37:21;8.20;99.90
77582;DHT22;66726;52.388;9.986;2024-02-23T10:39:54;8.20;99.90
77582;DHT22;66726;52.388;9.986;2024-02-23T10:42:28;8.30;99.90
77582;DHT22;66726;52.388;9.986;2024-02-23T10:45:01;8.30;99.90
77582;DHT22;66726;52.388;9.986;2024-02-23T10:47:31;8.40;99.90
77582;DHT22;66726;52.388;9.986;2024-02-23T10:50:01;8.30;99.90
77582;DHT22;66726;52.388;9.986;2024-02-23T10:52:33;8.30;99.90
77582;DHT22;66726;52.388;9.986;2024-02-23T10:55:02;8.40;99.90
77582;DHT22;66726;52.388;9.986;2024-02-23T10:57:36;8.50;99.90
77582;DHT22;66726;52.388;9.986;2024-02-23T11:00:07;8.60;99.90
77582;DHT22;66726;52.388;9.986;2024-02-23T11:02:40;8.80;99.90
77582;DHT22;66726;52.388;9.986;2024-02-23T11:05:12;9.10;99.90
77582;DHT22;66726;52.388;9.986;2024-02-23T11:07:46;9.20;99.90
77582;DHT22;66726;52.388;9.986;2024-02-23T11:10:16;9.30;99.90
77582;DHT22;66726;52.388;9.986;2024-02-23T11:12:57;9.30;99.90
77582;DHT22;66726;52.388;9.986;2024-02-23T11:15:27;9.30;99.90
77582;DHT22;66726;52.388;9.986;2024-02-23T11:17:57;9.50;99.90
77582;DHT22;66726;52.388;9.986;2024-02-23T11:20:34;9.60;99.90
77582;DHT22;66726;52.388;9.986;2024-02-23T11:23:14;9.60;99.90
77582;DHT22;66726;52.388;9.986;2024-02-23T11:25:43;9.40;99.90
77582;DHT22;66726;52.388;9.986;2024-02-23T11:28:21;9.60;99.90
77582;DHT22;66726;52.388;9.986;2024-02-23T11:30:51;9.70;99.90
77582;DHT22;66726;52.388;9.986;2024-02-23T11:33:25;9.70;99.90
77582;DHT22;66726;52.388;9.986;2024-02-23T11:36:04;9.80;99.90
77582;DHT22;66726;52.388;9.986;2024-02-23T11:38:35;9.80;99.90
77582;DHT22;66726;52.388;9.986;2024-02-23T11:41:04;9.70;99.90
77582;DHT22;66726;52.388;9.986;2024-02-23T11:43:34;9.60;99.90
77582;DHT22;66726;52.388;9.986;2024-02-23T11:46:03;9.60;99.90
77582;DHT22;66726;52.388;9.986;2024-02-23T11:48:31;9.60;99.90
77582;DHT22;66726;52.388;9.986;2024-02-23T11:51:00;9.60;99.90
77582;DHT22;66726;52.388;9.986;2024-02-23T11:53:28;9.60;99.90
77582;DHT22;66726;52.388;9.986;2024-02-23T11:55:59;9.70;99.90
77582;DHT22;66726;52.388;9.986;2024-02-23T11:58:27;9.70;99.90
77582;DHT22;66726;52.388;9.986;2024-02-23T12:00:55;9.60;99.90
77582;DHT22;66726;52.388;9.986;2024-02-23T12:03:26;9.40;99.90
77582;DHT22;66726;52.388;9.986;2024-02-23T12:05:55;9.50;99.90
77582;DHT22;66726;52.388;9.986;2024-02-23T12:08:25;9.40;99.90
77582;DHT22;66726;52.388;9.986;2024-02-23T12:10:54;9.50;99.90
77582;DHT22;66726;52.388;9.986;2024-02-23T12:13:24;9.70;99.90
77582;DHT22;66726;52.388;9.986;2024-02-23T12:15:53;9.70;99.90
77582;DHT22;66726;52.388;9.986;2024-02-23T12:18:22;9.70;99.90
77582;DHT22;66726;52.388;9.986;2024-02-23T12:20:53;9.70;99.90
77582;DHT22;66726;52.388;9.986;2024-02-23T12:23:21;9.60;99.90
77582;DHT22;66726;52.388;9.986;2024-02-23T12:25:53;9.50;99.90
77582;DHT22;66726;52.388;9.986;2024-02-23T12:28:23;9.40;99.90
77582;DHT22;66726;52.388;9.986;2024-02-23T12:30:59;9.40;99.90
77582;DHT22;66726;52.388;9.986;2024-02-23T12:33:28;9.30;99.90
77582;DHT22;66726;52.388;9.986;2024-02-23T12:35:58;9.30;99.90
77582;DHT22;66726;52.388;9.986;2024-02-23T12:38:27;9.30;99.90
77582;DHT22;66726;52.388;9.986;2024-02-23T12:40:55;9.30;99.90
77582;DHT22;66726;52.388;9.986;2024-02-23T12:43:26;9.30;99.90
77582;DHT22;66726;52.388;9.986;2024-02-23T12:45:54;9.40;99.90
77582;DHT22;66726;52.388;9.986;2024-02-23T12:48:23;9.40;99.90
77582;DHT22;66726;52.388;9.986;2024-02-23T12:50:52;9.30;99.90
77582;DHT22;66726;52.388;9.986;2024-02-23T12:53:35;9.40;99.90
77582;DHT22;66726;52.388;9.986;2024-02-23T12:56:06;9.50;99.90
77582;DHT22;66726;52.388;9.986;2024-02-23T12:58:37;9.60;99.90
77582;DHT22;66726;52.388;9.986;2024-02-23T13:01:07;9.50;99.90
77582;DHT22;66726;52.388;9.986;2024-02-23T13:03:37;9.40;99.90
77582;DHT22;66726;52.388;9.986;2024-02-23T13:06:08;9.40;99.90
77582;DHT22;66726;52.388;9.986;2024-02-23T13:08:37;9.40;99.90
77582;DHT22;66726;52.388;9.986;2024-02-23T13:11:07;9.50;99.90
77582;DHT22;66726;52.388;9.986;2024-02-23T13:13:37;9.50;99.90
77582;DHT22;66726;52.388;9.986;2024-02-23T13:16:07;9.50;99.90
77582;DHT22;66726;52.388;9.986;2024-02-23T13:18:36;9.50;99.90
77582;DHT22;66726;52.388;9.986;2024-02-23T13:21:04;9.60;99.90
77582;DHT22;66726;52.388;9.986;2024-02-23T13:23:32;9.60;99.90
77582;DHT22;66726;52.388;9.986;2024-02-23T13:26:01;9.60;99.90
77582;DHT22;66726;52.388;9.986;2024-02-23T13:28:30;9.60;99.90
77582;DHT22;66726;52.388;9.986;2024-02-23T13:30:59;9.40;99.90
77582;DHT22;66726;52.388;9.986;2024-02-23T13:33:27;9.50;99.90
77582;DHT22;66726;52.388;9.986;2024-02-23T13:35:56;9.50;99.90
77582;DHT22;66726;52.388;9.986;2024-02-23T13:38:24;9.50;99.90
77582;DHT22;66726;52.388;9.986;2024-02-23T13:40:52;9.50;99.90
77582;DHT22;66726;52.388;9.986;2024-02-23T13:43:20;9.50;99.90
77582;DHT22;66726;52.388;9.986;2024-02-23T13:45:50;9.50;99.90
77582;DHT22;66726;52.388;9.986;2024-02-23T13:48:20;9.50;99.90
77582;DHT22;66726;52.388;9.986;2024-02-23T13:50:49;9.40;99.90
77582;DHT22;66726;52.388;9.986;2024-02-23T13:53:17;9.50;99.90
77582;DHT22;66726;52.388;9.986;2024-02-23T13:55:46;9.50;99.90
77582;DHT22;66726;52.388;9.986;2024-02-23T13:58:14;9.50;99.90
77582;DHT22;66726;52.388;9.986;2024-02-23T14:00:44;9.50;99.90
77582;DHT22;66726;52.388;9.986;2024-02-23T14:03:16;9.40;99.90
77582;DHT22;66726;52.388;9.986;2024-02-23T14:05:47;9.40;99.90
77582;DHT22;66726;52.388;9.986;2024-02-23T14:08:15;9.40;99.90
77582;DHT22;66726;52.388;9.986;2024-02-23T14:10:43;9.40;99.90
77582;DHT22;66726;52.388;9.986;2024-02-23T14:13:12;9.40;99.90
77582;DHT22;66726;52.388;9.986;2024-02-23T14:15:40;9.40;99.90
77582;DHT22;66726;52.388;9.986;2024-02-23T14:18:09;9.40;99.90
77582;DHT22;66726;52.388;9.986;2024-02-23T14:20:37;9.40;99.90
77582;DHT22;66726;52.388;9.986;2024-02-23T14:23:06;9.40;99.90
77582;DHT22;66726;52.388;9.986;2024-02-23T14:25:34;9.40;99.90
77582;DHT22;66726;52.388;9.986;2024-02-23T14:28:03;9.40;99.90
77582;DHT22;66726;52.388;9.986;2024-02-23T14:30:31;9.40;99.90
77582;DHT22;66726;52.388;9.986;2024-02-23T14:32:59;9.40;99.90
77582;DHT22;66726;52.388;9.986;2024-02-23T14:35:28;9.40;99.90
77582;DHT22;66726;52.388;9.986;2024-02-23T14:37:56;9.40;99.90
77582;DHT22;66726;52.388;9.986;2024-02-23T14:40:26;9.30;99.90
77582;DHT22;66726;52.388;9.986;2024-02-23T14:42:55;9.40;99.90
77582;DHT22;66726;52.388;9.986;2024-02-23T14:45:23;9.30;99.90
77582;DHT22;66726;52.388;9.986;2024-02-23T14:47:53;9.30;99.90
77582;DHT22;66726;52.388;9.986;2024-02-23T14:50:22;9.30;99.90
77582;DHT22;66726;52.388;9.986;2024-02-23T14:52:50;9.30;99.90
77582;DHT22;66726;52.388;9.986;2024-02-23T14:55:18;9.30;99.90
77582;DHT22;66726;52.388;9.986;2024-02-23T14:57:48;9.30;99.90
77582;DHT22;66726;52.388;9.986;2024-02-23T15:00:17;9.30;99.90
77582;DHT22;66726;52.388;9.986;2024-02-23T15:02:45;9.30;99.90
77582;DHT22;66726;52.388;9.986;2024-02-23T15:05:14;9.30;99.90
77582;DHT22;66726;52.388;9.986;2024-02-23T15:07:44;9.30;99.90
77582;DHT22;66726;52.388;9.986;2024-02-23T15:10:13;9.30;99.90
77582;DHT22;66726;52.388;9.986;2024-02-23T15:12:41;9.30;99.90
77582;DHT22;66726;52.388;9.986;2024-02-23T15:15:11;9.30;99.90
77582;DHT22;66726;52.388;9.986;2024-02-23T15:17:40;9.20;99.90
77582;DHT22;66726;52.388;9.986;2024-02-23T15:20:10;9.30;99.90
77582;DHT22;66726;52.388;9.986;2024-02-23T15:22:39;9.20;99.90
77582;DHT22;66726;52.388;9.986;2024-02-23T15:25:09;9.20;99.90
77582;DHT22;66726;52.388;9.986;2024-02-23T15:27:38;9.20;99.90
77582;DHT22;66726;52.388;9.986;2024-02-23T15:30:07;9.20;99.90
77582;DHT22;66726;52.388;9.986;2024-02-23T15:32:38;9.20;99.90
77582;DHT22;66726;52.388;9.986;2024-02-23T15:35:07;9.20;99.90
77582;DHT22;66726;52.388;9.986;2024-02-23T15:37:35;9.20;99.90
77582;DHT22;66726;52.388;9.986;2024-02-23T15:40:04;9.20;99.90
77582;DHT22;66726;52.388;9.986;2024-02-23T15:42:34;9.20;99.90
77582;DHT22;66726;52.388;9.986;2024-02-23T15:45:03;9.20;99.90
77582;DHT22;66726;52.388;9.986;2024-02-23T15:47:33;9.20;99.90
77582;DHT22;66726;52.388;9.986;2024-02-23T15:50:04;9.10;99.90
77582;DHT22;66726;52.388;9.986;2024-02-23T15:52:53;9.10;99.90
77582;DHT22;66726;52.388;9.986;2024-02-23T15:55:21;9.10;99.90
77582;DHT22;66726;52.388;9.986;2024-02-23T15:57:50;9.10;99.90